Impacts TAF Board INFO
FOR SITUATIONAL AWARENESS. NOT TO BE USED FOR FLIGHT PLANNING PURPOSES.
IDs:

KDEN - Denver Intl, CO, US

Issued at 0300 UTC 22 Nov 2017
Updated at 0346 UTC 22 Nov 2017
Potential Impact None Slight Moderate High
Time0253Z 22/04Z 22/05Z 22/06Z 22/07Z 22/08Z 22/09Z 22/10Z 22/11Z 22/12Z 22/13Z 22/14Z 22/15Z 22/16Z>>
Type OBS PRVL PRVL PRVL PRVL PRVL PRVL PRVL PRVL PRVL PRVL PRVL PRVL PRVL
VIS 10 >6 >6 >6 >6 >6 >6 >6 >6 >6 >6 >6 >6 >6
CIG -- 220 220 220 220 220 220 220 220 220 220 220 220 220
Cover FEW BKN BKN BKN BKN BKN BKN BKN BKN BKN BKN BKN BKN BKN
FltCat VFR VFR VFR VFR VFR VFR VFR VFR VFR VFR VFR VFR VFR VFR
WX -- -- -- -- -- -- -- -- -- -- -- -- -- --
WDir 150 200 200 200 200 200 200 200 200 200 200 200 240 240
WSpd 8 8 8 8 8 8 8 8 8 8 8 8 10 10
WGst -- -- -- -- -- -- -- -- -- -- -- -- -- --

Raw TAF
KDEN 220300Z 2203/2306 16007KT P6SM SCT220
  FM220400 20008KT P6SM FEW150 BKN220
  FM221500 24010KT P6SM SCT100 BKN220
  FM222000 30012G20KT P6SM SCT100 BKN200
  FM230200 21011KT P6SM FEW120 BKN200


Raw METAR
KDEN 220253Z 15008KT 10SM FEW220 M01/M03 A3027 RMK AO2 SLP252 T10061033 58006
KDEN 220153Z 16010KT 10SM FEW220 00/M03 A3029 RMK AO2 SLP251 T00001028
KDEN 220053Z 16008KT 10SM FEW090 FEW250 01/M02 A3029 RMK AO2 SLP247 T00111017

METAR Board
Radar Display
Forecast Discussion

FOR SITUATIONAL AWARENESS. NOT TO BE USED FOR FLIGHT PLANNING PURPOSES.